Time;durP1;ratioP1;P1;durP2;ratioP2;P2;SDS_P1;SDS_P2;PMS_P1;PMS_P2;Temp;Humidity;BMP_temperature;BMP_pressure;BME280_temperature;BME280_humidity;BME280_pressure;Samples;Min_cycle;Max_cycle;Signal;HPM_P1;HPM_P2
2021/08/28 00:01:26;;;;;;;3.33;1.60;;;15.80;99.90;;;;;;4991478;28;20124;-82
2021/08/28 00:03:52;;;;;;;5.15;1.80;;;15.30;99.90;;;;;;4999781;28;20579;-79
2021/08/28 00:06:17;;;;;;;5.50;2.40;;;17.20;99.90;;;;;;4998860;28;20057;-82
2021/08/28 00:08:43;;;;;;;5.90;1.90;;;17.20;99.90;;;;;;5014678;28;20030;-82
2021/08/28 00:11:09;;;;;;;4.10;1.73;;;;;;;;;;5007095;28;20033;-80
2021/08/28 00:13:35;;;;;;;4.72;1.52;;;15.90;99.90;;;;;;4991863;28;20037;-78
2021/08/28 00:16:01;;;;;;;5.43;2.20;;;17.10;99.90;;;;;;4993934;28;20030;-83
2021/08/28 00:18:26;;;;;;;4.47;1.98;;;15.80;99.90;;;;;;5015093;28;20022;-80
2021/08/28 00:20:52;;;;;;;3.45;1.80;;;15.80;99.90;;;;;;4993334;28;20040;-81
2021/08/28 00:23:18;;;;;;;6.53;2.10;;;15.70;99.90;;;;;;4998352;28;20033;-82
2021/08/28 00:25:43;;;;;;;10.90;3.42;;;16.30;99.90;;;;;;4993000;28;20053;-82
2021/08/28 00:28:09;;;;;;;5.28;1.70;;;16.30;99.90;;;;;;5014470;28;20034;-81
2021/08/28 00:30:35;;;;;;;6.15;2.05;;;15.60;99.90;;;;;;4999134;28;20444;-81
2021/08/28 00:33:17;;;;;;;4.60;1.52;;;15.60;99.90;;;;;;5015133;28;20057;-78
2021/08/28 00:35:43;;;;;;;5.05;2.03;;;15.60;99.90;;;;;;5001251;28;20033;-79
2021/08/28 00:38:09;;;;;;;4.53;2.30;;;15.70;99.90;;;;;;4991837;28;20032;-80
2021/08/28 00:40:36;;;;;;;5.38;1.85;;;16.30;99.90;;;;;;4991710;28;20026;-81
2021/08/28 00:43:02;;;;;;;8.15;2.20;;;;;;;;;;4997018;28;20030;-81
2021/08/28 00:45:30;;;;;;;3.47;1.75;;;15.50;99.90;;;;;;5005225;28;20072;-79
2021/08/28 00:48:14;;;;;;;3.85;1.60;;;15.50;99.90;;;;;;4998074;28;20032;-82
2021/08/28 00:50:43;;;;;;;7.10;2.88;;;16.20;99.90;;;;;;4990965;28;20029;-81
2021/08/28 00:53:11;;;;;;;5.65;1.70;;;15.60;99.90;;;;;;4998174;28;20033;-81
2021/08/28 00:55:38;;;;;;;6.53;2.05;;;15.50;99.90;;;;;;4998621;28;20046;-81
2021/08/28 00:58:04;;;;;;;5.55;2.80;;;15.50;99.90;;;;;;4999240;28;20033;-79
2021/08/28 01:00:35;;;;;;;5.32;2.15;;;15.50;99.90;;;;;;4998935;28;20044;-81
2021/08/28 01:03:03;;;;;;;5.22;1.98;;;16.70;99.90;;;;;;5012214;28;20017;-81
2021/08/28 01:05:36;;;;;;;8.63;2.67;;;15.50;99.90;;;;;;4995488;28;20038;-82
2021/08/28 01:08:27;;;;;;;6.07;3.15;;;15.50;99.90;;;;;;5003446;28;20565;-83
2021/08/28 01:11:21;;;;;;;6.20;2.25;;;15.50;99.90;;;;;;5022415;28;20053;-81
2021/08/28 01:13:53;;;;;;;6.03;2.15;;;15.50;99.90;;;;;;4993095;28;20220;-80
2021/08/28 01:16:20;;;;;;;4.72;2.15;;;15.50;99.90;;;;;;4999803;28;20048;-84
2021/08/28 01:18:46;;;;;;;6.80;2.10;;;15.50;99.90;;;;;;5002494;28;20030;-82
2021/08/28 01:21:15;;;;;;;6.75;2.25;;;16.00;99.90;;;;;;5002163;28;20658;-81
2021/08/28 01:23:41;;;;;;;5.70;2.42;;;;;;;;;;5022927;28;20030;-82
2021/08/28 01:26:12;;;;;;;4.40;2.20;;;15.50;99.90;;;;;;5003884;28;20041;-85
2021/08/28 01:28:59;;;;;;;5.45;2.33;;;15.50;99.90;;;;;;5002878;28;20030;-81
2021/08/28 01:31:25;;;;;;;4.55;1.88;;;15.50;99.90;;;;;;5017273;28;20022;-82
2021/08/28 01:33:52;;;;;;;7.18;2.67;;;15.50;99.90;;;;;;5002206;28;20552;-79
2021/08/28 01:36:19;;;;;;;7.82;2.13;;;15.40;99.90;;;;;;4996286;28;20025;-80
2021/08/28 01:38:46;;;;;;;8.05;2.50;;;15.60;99.90;;;;;;5004796;28;20045;-81
2021/08/28 01:41:12;;;;;;;6.30;2.83;;;17.00;99.90;;;;;;5003498;28;20079;-79
2021/08/28 01:43:38;;;;;;;5.85;2.15;;;;;;;;;;5002769;28;20037;-83
2021/08/28 01:46:05;;;;;;;4.25;2.10;;;15.60;99.90;;;;;;4998938;28;20416;-82
2021/08/28 01:48:32;;;;;;;5.55;2.47;;;15.50;99.90;;;;;;5000431;28;20034;-79
2021/08/28 01:50:58;;;;;;;8.23;3.42;;;;;;;;;;4998928;28;20033;-81
2021/08/28 01:53:24;;;;;;;4.88;2.20;;;;;;;;;;5001657;28;20025;-79
2021/08/28 01:55:50;;;;;;;5.60;2.75;;;15.50;99.90;;;;;;5000127;28;20132;-81
2021/08/28 01:58:16;;;;;;;5.88;2.33;;;;;;;;;;5020995;28;20018;-81
2021/08/28 02:00:42;;;;;;;6.30;2.20;;;;;;;;;;5014568;28;20084;-80
2021/08/28 02:03:08;;;;;;;4.82;2.38;;;;;;;;;;4997079;28;20308;-80
2021/08/28 02:05:40;;;;;;;4.20;2.00;;;15.30;99.90;;;;;;5005184;28;20523;-82
2021/08/28 02:08:10;;;;;;;4.28;2.28;;;16.10;99.90;;;;;;5007238;28;20025;-82
2021/08/28 02:10:48;;;;;;;7.15;2.70;;;15.30;99.90;;;;;;4999220;28;20128;-83
2021/08/28 02:13:48;;;;;;;5.30;2.03;;;15.20;99.90;;;;;;5008891;28;20053;-82
2021/08/28 02:16:17;;;;;;;7.00;2.28;;;15.20;99.90;;;;;;5019564;28;20491;-81
2021/08/28 02:18:53;;;;;;;6.57;2.40;;;17.50;99.90;;;;;;5012855;28;20287;-81
2021/08/28 02:21:21;;;;;;;5.13;2.17;;;15.20;99.90;;;;;;5006612;28;20176;-81
2021/08/28 02:24:10;;;;;;;4.50;1.83;;;15.20;99.90;;;;;;5012000;28;20435;-80
2021/08/28 02:26:50;;;;;;;4.13;2.20;;;15.60;99.90;;;;;;5015517;28;20052;-81
2021/08/28 02:29:27;;;;;;;7.35;2.40;;;15.20;99.90;;;;;;5020584;28;20030;-80
2021/08/28 02:31:53;;;;;;;8.52;3.67;;;;;;;;;;4997209;28;20160;-80
2021/08/28 02:34:19;;;;;;;5.75;2.92;;;15.10;99.90;;;;;;5022383;28;20038;-81
2021/08/28 02:36:46;;;;;;;7.78;2.72;;;15.00;99.90;;;;;;5007115;28;20030;-80
2021/08/28 02:39:15;;;;;;;6.55;2.88;;;15.10;99.90;;;;;;4998715;28;20033;-83
2021/08/28 02:41:43;;;;;;;6.55;2.25;;;15.00;99.90;;;;;;4998683;28;20021;-83
2021/08/28 02:44:10;;;;;;;7.30;2.80;;;15.00;99.90;;;;;;5000896;28;20022;-81
2021/08/28 02:46:37;;;;;;;6.72;2.65;;;15.00;99.90;;;;;;4996981;28;20480;-82
2021/08/28 02:49:07;;;;;;;6.80;2.85;;;15.00;99.90;;;;;;5015740;28;20040;-81
2021/08/28 02:51:36;;;;;;;5.35;3.13;;;15.00;99.90;;;;;;4991336;28;20030;-81
2021/08/28 02:54:07;;;;;;;8.35;3.58;;;15.00;99.90;;;;;;4996122;28;20029;-79
2021/08/28 02:56:33;;;;;;;5.00;2.85;;;14.30;99.90;;;;;;5000883;28;20034;-81
2021/08/28 02:58:59;;;;;;;6.53;2.90;;;17.50;99.90;;;;;;5005321;28;20054;-79
2021/08/28 03:01:28;;;;;;;6.95;2.75;;;14.90;99.90;;;;;;5001369;28;20038;-81
2021/08/28 03:03:55;;;;;;;8.07;3.15;;;15.20;99.90;;;;;;5001514;28;20042;-82
2021/08/28 03:06:24;;;;;;;6.15;2.88;;;14.90;99.90;;;;;;5006310;28;20061;-80
2021/08/28 03:08:50;;;;;;;7.80;3.35;;;;;;;;;;5005465;28;20025;-81
2021/08/28 03:11:16;;;;;;;9.70;3.15;;;;;;;;;;4996172;28;20404;-80
2021/08/28 03:13:42;;;;;;;5.18;2.97;;;;;;;;;;5005380;28;20039;-80
2021/08/28 03:16:09;;;;;;;6.82;2.80;;;;;;;;;;5020894;28;20018;-84
2021/08/28 03:18:40;;;;;;;7.18;3.47;;;14.90;99.90;;;;;;5001385;28;20030;-83
2021/08/28 03:21:06;;;;;;;8.00;2.78;;;15.00;99.90;;;;;;5015005;28;20026;-80
2021/08/28 03:23:33;;;;;;;6.07;2.35;;;14.80;99.90;;;;;;5010167;28;20022;-81
2021/08/28 03:26:00;;;;;;;4.43;2.63;;;14.80;99.90;;;;;;5006064;28;20025;-81
2021/08/28 03:28:28;;;;;;;5.80;2.70;;;14.80;99.90;;;;;;5020907;28;20050;-80
2021/08/28 03:30:54;;;;;;;7.53;3.13;;;;;;;;;;4997606;28;20492;-82
2021/08/28 03:33:21;;;;;;;8.68;2.65;;;14.70;99.90;;;;;;5026398;28;20056;-83
2021/08/28 03:35:49;;;;;;;6.90;2.83;;;14.70;99.90;;;;;;5006574;28;20033;-80
2021/08/28 03:38:15;;;;;;;9.63;3.15;;;;;;;;;;4997499;28;20093;-81
2021/08/28 03:40:43;;;;;;;6.07;3.63;;;14.60;99.90;;;;;;5024233;28;20086;-83
2021/08/28 03:43:10;;;;;;;7.53;3.65;;;14.60;99.90;;;;;;5009334;28;20033;-82
2021/08/28 03:45:36;;;;;;;11.48;4.00;;;;;;;;;;5015335;28;20022;-83
2021/08/28 03:48:02;;;;;;;7.63;3.78;;;14.60;99.90;;;;;;4991994;28;20037;-80
2021/08/28 03:50:28;;;;;;;9.50;4.05;;;14.60;99.90;;;;;;5004450;28;20368;-81
2021/08/28 03:52:54;;;;;;;10.73;3.97;;;;;;;;;;5004951;28;20025;-83
2021/08/28 03:55:19;;;;;;;9.75;4.05;;;14.60;99.90;;;;;;5001649;28;20041;-81
2021/08/28 03:57:45;;;;;;;8.52;4.07;;;14.70;99.90;;;;;;4998903;28;20085;-82
2021/08/28 04:00:12;;;;;;;9.25;4.35;;;14.70;99.90;;;;;;5013696;28;20029;-81
2021/08/28 04:02:37;;;;;;;11.63;3.75;;;14.70;99.90;;;;;;5026314;28;20026;-85
2021/08/28 04:05:03;;;;;;;9.95;3.83;;;16.40;99.90;;;;;;5005291;28;20076;-82
2021/08/28 04:07:29;;;;;;;7.07;3.28;;;14.70;99.90;;;;;;5001875;28;20030;-81
2021/08/28 04:09:55;;;;;;;8.60;3.20;;;14.70;99.90;;;;;;5002686;28;20045;-82
2021/08/28 04:12:21;;;;;;;7.90;3.22;;;;;;;;;;5003954;28;20030;-81
2021/08/28 04:14:47;;;;;;;7.85;3.58;;;;;;;;;;4998662;28;20395;-82
2021/08/28 04:17:12;;;;;;;9.02;4.50;;;14.60;99.90;;;;;;5018583;28;20033;-81
2021/08/28 04:19:38;;;;;;;12.82;3.90;;;;;;;;;;5000506;28;20029;-83
2021/08/28 04:22:04;;;;;;;7.35;3.83;;;14.60;99.90;;;;;;5004895;28;20022;-84
2021/08/28 04:24:30;;;;;;;12.73;4.30;;;14.60;99.90;;;;;;5001432;28;20090;-81
2021/08/28 04:26:56;;;;;;;9.82;4.07;;;15.50;99.90;;;;;;5012840;28;20101;-81
2021/08/28 04:29:22;;;;;;;11.23;4.10;;;14.60;99.90;;;;;;4990938;28;20042;-82
2021/08/28 04:31:48;;;;;;;10.90;4.03;;;14.50;99.90;;;;;;5011575;28;20034;-81
2021/08/28 04:34:13;;;;;;;9.25;4.25;;;14.50;99.90;;;;;;5009138;28;20037;-79
2021/08/28 04:36:39;;;;;;;14.10;5.47;;;15.50;99.90;;;;;;4996276;28;20553;-79
2021/08/28 04:39:05;;;;;;;9.52;4.32;;;14.50;99.90;;;;;;5004514;28;20021;-80
2021/08/28 04:41:30;;;;;;;7.53;4.18;;;14.50;99.90;;;;;;5010072;28;20476;-81
2021/08/28 04:43:56;;;;;;;12.05;4.00;;;14.50;99.90;;;;;;5006779;28;20037;-83
2021/08/28 04:46:21;;;;;;;13.45;4.20;;;14.60;99.90;;;;;;5007667;28;20223;-82
2021/08/28 04:48:48;;;;;;;8.05;3.75;;;14.50;99.90;;;;;;5020239;28;20040;-82
2021/08/28 04:51:13;;;;;;;10.27;3.70;;;14.50;99.90;;;;;;5021229;28;20104;-82
2021/08/28 04:53:39;;;;;;;9.00;3.70;;;;;;;;;;5020841;28;20081;-80
2021/08/28 04:56:05;;;;;;;10.07;4.00;;;;;;;;;;5019474;28;20037;-81
2021/08/28 04:58:32;;;;;;;10.18;4.00;;;;;;;;;;5020735;28;20506;-81
2021/08/28 05:00:58;;;;;;;8.88;3.78;;;;;;;;;;5017159;28;20030;-81
2021/08/28 05:03:25;;;;;;;11.10;4.35;;;;;;;;;;5014025;28;20038;-78
2021/08/28 05:05:54;;;;;;;8.77;4.00;;;;;;;;;;5022286;28;20030;-81
2021/08/28 05:08:20;;;;;;;8.70;4.45;;;14.50;99.90;;;;;;5004133;28;20026;-80
2021/08/28 05:10:46;;;;;;;10.00;3.97;;;14.50;99.90;;;;;;5007744;28;20025;-81
2021/08/28 05:13:12;;;;;;;11.60;4.07;;;14.50;99.90;;;;;;5016794;28;20022;-79
2021/08/28 05:15:38;;;;;;;8.35;3.80;;;14.60;99.90;;;;;;4999480;28;20038;-80
2021/08/28 05:18:04;;;;;;;10.40;4.57;;;;;;;;;;5011267;28;20025;-81
2021/08/28 05:20:30;;;;;;;9.32;4.22;;;14.50;99.90;;;;;;5024002;28;20040;-84
2021/08/28 05:22:56;;;;;;;9.68;4.20;;;14.60;99.90;;;;;;5002743;28;20018;-80
2021/08/28 05:25:22;;;;;;;7.68;4.60;;;14.60;99.90;;;;;;5004040;28;20026;-81
2021/08/28 05:27:48;;;;;;;9.65;4.15;;;14.60;99.90;;;;;;5006986;28;20049;-81
2021/08/28 05:30:14;;;;;;;9.35;4.75;;;;;;;;;;5027610;28;20018;-79
2021/08/28 05:32:41;;;;;;;9.80;4.10;;;;;;;;;;5023249;28;20435;-83
2021/08/28 05:35:07;;;;;;;11.35;4.18;;;14.70;99.90;;;;;;5005111;28;20054;-78
2021/08/28 05:37:33;;;;;;;9.68;4.00;;;;;;;;;;5015334;28;20030;-78
2021/08/28 05:39:59;;;;;;;12.55;4.28;;;;;;;;;;5003782;28;20407;-81
2021/08/28 05:42:25;;;;;;;9.77;4.18;;;;;;;;;;5010579;28;20022;-81
2021/08/28 05:44:54;;;;;;;9.55;4.10;;;14.70;99.90;;;;;;5018856;28;20419;-80
2021/08/28 05:47:23;;;;;;;7.50;4.00;;;14.60;99.90;;;;;;4996132;28;20042;-83
2021/08/28 05:49:49;;;;;;;21.45;5.00;;;;;;;;;;4993361;28;20034;-81
2021/08/28 05:52:15;;;;;;;12.85;4.43;;;;;;;;;;5028739;28;20031;-78
2021/08/28 05:54:41;;;;;;;13.95;4.78;;;;;;;;;;5022481;28;20026;-79
2021/08/28 05:57:07;;;;;;;10.18;4.60;;;14.70;99.90;;;;;;5005652;28;20124;-82
2021/08/28 05:59:33;;;;;;;8.25;4.22;;;;;;;;;;5002400;28;20492;-80
2021/08/28 06:01:59;;;;;;;7.93;4.53;;;;;;;;;;5006311;28;20033;-80
2021/08/28 06:04:26;;;;;;;10.10;4.07;;;;;;;;;;5017216;28;20194;-80
2021/08/28 06:06:53;;;;;;;8.85;3.72;;;;;;;;;;5022987;28;20033;-81
2021/08/28 06:09:19;;;;;;;9.75;4.10;;;;;;;;;;5005995;28;20034;-79
2021/08/28 06:11:45;;;;;;;8.50;4.55;;;;;;;;;;5007154;28;20089;-81
2021/08/28 06:14:11;;;;;;;10.77;4.50;;;;;;;;;;5003828;28;20254;-80
2021/08/28 06:16:37;;;;;;;8.77;3.97;;;;;;;;;;5022114;28;20093;-82
2021/08/28 06:19:03;;;;;;;7.68;3.90;;;;;;;;;;5018325;28;20064;-82
2021/08/28 06:21:31;;;;;;;10.30;4.22;;;;;;;;;;5002606;28;20031;-81
2021/08/28 06:23:58;;;;;;;7.43;3.80;;;;;;;;;;5020966;28;20021;-80
2021/08/28 06:26:24;;;;;;;11.05;4.50;;;;;;;;;;5011946;28;20026;-81
2021/08/28 06:28:50;;;;;;;8.75;4.53;;;;;;;;;;5011309;28;20033;-81
2021/08/28 06:31:16;;;;;;;11.68;4.15;;;;;;;;;;5019060;28;20053;-79
2021/08/28 06:33:42;;;;;;;9.20;3.95;;;;;;;;;;5020069;28;20592;-82
2021/08/28 06:36:08;;;;;;;8.32;4.38;;;;;;;;;;5018283;28;20634;-80
2021/08/28 06:38:34;;;;;;;8.48;3.83;;;;;;;;;;5012949;28;20034;-81
2021/08/28 06:41:02;;;;;;;7.63;3.78;;;14.90;99.90;;;;;;5005846;28;20018;-81
2021/08/28 06:43:28;;;;;;;7.95;3.38;;;14.80;99.90;;;;;;5005478;28;20018;-81
2021/08/28 06:45:57;;;;;;;11.48;3.80;;;14.90;99.90;;;;;;5020830;28;20037;-82
2021/08/28 06:48:23;;;;;;;9.07;3.80;;;;;;;;;;5003011;28;20030;-81
2021/08/28 06:50:49;;;;;;;8.30;3.47;;;;;;;;;;5010202;28;20092;-83
2021/08/28 06:53:16;;;;;;;12.52;3.63;;;15.00;99.90;;;;;;5011812;28;20029;-81
2021/08/28 06:55:42;;;;;;;7.93;3.90;;;15.10;99.90;;;;;;4994762;28;20113;-81
2021/08/28 06:58:08;;;;;;;6.60;3.55;;;;;;;;;;5001968;28;20021;-83
2021/08/28 07:00:34;;;;;;;6.78;3.35;;;;;;;;;;5009495;28;20037;-82
2021/08/28 07:03:00;;;;;;;8.68;3.92;;;15.30;99.90;;;;;;5015518;28;20022;-84
2021/08/28 07:05:26;;;;;;;6.93;3.75;;;;;;;;;;4999395;28;20041;-80
2021/08/28 07:07:52;;;;;;;7.82;3.70;;;15.40;99.90;;;;;;5014094;28;20029;-80
2021/08/28 07:10:19;;;;;;;5.93;3.33;;;;;;;;;;4997876;28;20021;-79
2021/08/28 07:12:45;;;;;;;7.15;3.35;;;;;;;;;;5003072;28;20137;-81
2021/08/28 07:15:11;;;;;;;8.73;3.80;;;;;;;;;;5012168;28;20030;-83
2021/08/28 07:17:37;;;;;;;6.53;3.80;;;;;;;;;;5019811;28;20044;-80
2021/08/28 07:20:04;;;;;;;9.32;4.40;;;15.40;99.90;;;;;;5003333;28;20081;-83
2021/08/28 07:22:30;;;;;;;8.20;3.67;;;;;;;;;;5003216;28;20030;-81
2021/08/28 07:24:56;;;;;;;9.23;3.85;;;;;;;;;;5013403;28;20022;-79
2021/08/28 07:27:23;;;;;;;8.77;4.22;;;;;;;;;;5002090;28;20561;-78
2021/08/28 07:29:50;;;;;;;7.38;4.00;;;15.50;99.90;;;;;;5019251;28;20075;-80
2021/08/28 07:32:16;;;;;;;6.22;3.58;;;;;;;;;;5014602;28;20026;-81
2021/08/28 07:34:42;;;;;;;8.32;3.65;;;;;;;;;;5015500;28;20045;-83
2021/08/28 07:37:08;;;;;;;10.75;4.20;;;;;;;;;;4996331;28;20488;-81
2021/08/28 07:39:35;;;;;;;8.02;4.00;;;;;;;;;;4999981;28;20022;-79
2021/08/28 07:42:01;;;;;;;9.52;3.45;;;;;;;;;;5020900;28;20029;-81
2021/08/28 07:44:27;;;;;;;9.48;3.88;;;;;;;;;;5001481;28;20495;-82
2021/08/28 07:46:53;;;;;;;8.32;3.47;;;;;;;;;;5010415;28;20068;-81
2021/08/28 07:49:19;;;;;;;7.85;3.70;;;;;;;;;;5005685;28;20026;-83
2021/08/28 07:51:46;;;;;;;8.70;3.35;;;;;;;;;;5016059;28;20041;-80
2021/08/28 07:54:12;;;;;;;7.20;3.40;;;;;;;;;;5015748;28;20025;-83
2021/08/28 07:56:38;;;;;;;7.38;3.53;;;;;;;;;;5002394;28;20036;-82
2021/08/28 07:59:04;;;;;;;8.52;3.13;;;;;;;;;;5026193;28;20029;-79
2021/08/28 08:01:29;;;;;;;6.80;3.00;;;16.30;99.90;;;;;;4996552;28;20025;-81
2021/08/28 08:03:55;;;;;;;4.55;3.10;;;;;;;;;;4998557;28;20022;-80
2021/08/28 08:06:21;;;;;;;6.47;2.92;;;;;;;;;;5003215;28;20250;-81
2021/08/28 08:08:48;;;;;;;4.95;2.97;;;;;;;;;;5000565;28;20030;-79
2021/08/28 08:11:16;;;;;;;5.72;3.00;;;;;;;;;;5019136;28;20037;-81
2021/08/28 08:13:42;;;;;;;7.68;3.00;;;;;;;;;;5012021;28;20030;-79
2021/08/28 08:16:08;;;;;;;5.45;2.85;;;16.50;99.90;;;;;;5012537;28;20030;-77
2021/08/28 08:18:34;;;;;;;6.70;3.20;;;16.50;99.90;;;;;;5017892;28;20048;-84
2021/08/28 08:21:00;;;;;;;6.07;2.80;;;16.50;99.90;;;;;;5016713;28;20018;-79
2021/08/28 08:23:25;;;;;;;7.68;2.97;;;17.00;99.90;;;;;;5003076;28;20022;-81
2021/08/28 08:25:52;;;;;;;6.10;2.83;;;;;;;;;;5019781;28;20083;-82
2021/08/28 08:28:17;;;;;;;6.90;2.78;;;16.40;99.90;;;;;;5013675;28;20026;-79
2021/08/28 08:30:43;;;;;;;6.20;2.38;;;16.40;99.90;;;;;;4998635;28;20071;-82
2021/08/28 08:33:13;;;;;;;5.35;2.60;;;16.40;99.90;;;;;;4996932;28;20033;-80
2021/08/28 08:35:51;;;;;;;4.47;2.15;;;17.50;99.90;;;;;;4998942;28;20034;-81
2021/08/28 08:38:23;;;;;;;5.28;2.33;;;16.60;99.90;;;;;;5005798;28;20022;-81
2021/08/28 08:40:52;;;;;;;6.97;2.47;;;16.60;99.90;;;;;;4968618;28;20057;-81
2021/08/28 08:43:19;;;;;;;5.35;2.63;;;16.50;99.90;;;;;;4996260;28;20454;-79
2021/08/28 08:45:46;;;;;;;5.88;3.17;;;;;;;;;;5005806;28;20032;-83
2021/08/28 08:48:15;;;;;;;7.93;3.15;;;16.50;99.90;;;;;;5014860;28;20026;-81
2021/08/28 08:50:44;;;;;;;7.90;3.25;;;16.40;99.90;;;;;;4999283;28;20021;-81
2021/08/28 08:53:10;;;;;;;6.88;2.83;;;;;;;;;;4998866;28;20570;-82
2021/08/28 08:55:36;;;;;;;7.80;3.05;;;;;;;;;;4996135;28;20038;-82
2021/08/28 08:58:02;;;;;;;8.75;3.30;;;;;;;;;;5004398;28;20022;-80
2021/08/28 09:00:28;;;;;;;5.15;2.88;;;16.90;99.90;;;;;;4995051;28;20022;-79
2021/08/28 09:02:54;;;;;;;6.25;2.88;;;;;;;;;;4981058;28;20488;-82
2021/08/28 09:05:21;;;;;;;8.30;3.22;;;;;;;;;;5001368;28;20041;-81
2021/08/28 09:07:47;;;;;;;6.07;2.67;;;17.00;99.90;;;;;;5021245;28;20034;-83
2021/08/28 09:10:17;;;;;;;5.05;2.72;;;16.90;99.90;;;;;;4999022;28;20059;-83
2021/08/28 09:12:44;;;;;;;6.30;2.60;;;;;;;;;;5011650;28;20029;-80
2021/08/28 09:15:15;;;;;;;5.95;2.80;;;16.90;99.90;;;;;;5024410;28;20121;-82
2021/08/28 09:17:58;;;;;;;8.27;2.35;;;16.90;99.90;;;;;;4994892;28;20546;-83
2021/08/28 09:20:25;;;;;;;6.45;2.60;;;16.90;99.90;;;;;;4992066;28;20488;-83
2021/08/28 09:23:12;;;;;;;6.85;2.53;;;16.90;99.90;;;;;;5003364;28;20021;-81
2021/08/28 09:25:41;;;;;;;4.78;2.00;;;16.90;99.90;;;;;;4989418;28;20034;-81
2021/08/28 09:28:08;;;;;;;8.68;2.85;;;17.00;99.90;;;;;;4996861;28;20029;-81
2021/08/28 09:30:43;;;;;;;5.47;2.40;;;16.80;99.90;;;;;;4985833;28;20053;-80
2021/08/28 09:33:11;;;;;;;8.80;2.60;;;16.90;99.90;;;;;;4999731;28;20029;-81
2021/08/28 09:35:42;;;;;;;5.90;3.00;;;17.00;99.90;;;;;;4987054;28;20133;-81
2021/08/28 09:38:14;;;;;;;10.32;3.33;;;17.00;99.90;;;;;;5004185;28;20022;-80
2021/08/28 09:40:47;;;;;;;7.32;3.10;;;17.00;99.90;;;;;;5003693;28;20026;-82
2021/08/28 09:43:15;;;;;;;6.60;3.40;;;20.00;99.90;;;;;;5012698;28;20028;-81
2021/08/28 09:45:42;;;;;;;6.13;3.40;;;17.00;99.90;;;;;;4990080;28;20022;-80
2021/08/28 09:48:10;;;;;;;6.47;3.58;;;17.00;99.90;;;;;;4992820;28;20113;-84
2021/08/28 09:50:38;;;;;;;6.65;3.55;;;17.10;99.90;;;;;;4984600;28;20022;-82
2021/08/28 09:53:16;;;;;;;8.50;3.45;;;17.10;99.90;;;;;;4981692;28;20027;-84
2021/08/28 09:55:43;;;;;;;6.57;3.40;;;17.10;99.90;;;;;;4994751;28;20480;-80
2021/08/28 09:58:11;;;;;;;6.13;3.38;;;17.00;99.90;;;;;;4998513;28;20117;-78
2021/08/28 10:00:45;;;;;;;7.28;3.85;;;17.00;99.90;;;;;;4997913;28;20026;-83
2021/08/28 10:03:12;;;;;;;6.85;3.80;;;17.00;99.90;;;;;;4997779;28;20030;-83
2021/08/28 10:05:42;;;;;;;6.72;3.30;;;17.20;99.90;;;;;;5002309;28;20115;-83
2021/08/28 10:08:12;;;;;;;8.57;3.78;;;17.20;99.90;;;;;;5014198;28;20022;-81
2021/08/28 10:10:40;;;;;;;6.75;3.58;;;20.20;99.90;;;;;;5018681;28;20022;-82
2021/08/28 10:13:07;;;;;;;9.52;3.78;;;17.40;99.90;;;;;;4970527;28;20166;-81
2021/08/28 10:15:35;;;;;;;8.75;3.65;;;17.50;99.90;;;;;;4993053;28;20030;-83
2021/08/28 10:18:12;;;;;;;8.25;3.60;;;17.50;99.90;;;;;;5000399;28;20031;-83
2021/08/28 10:20:40;;;;;;;7.80;3.58;;;17.60;99.90;;;;;;5001665;28;20022;-81
2021/08/28 10:23:08;;;;;;;5.70;3.40;;;17.70;99.90;;;;;;4998281;28;20383;-82
2021/08/28 10:25:37;;;;;;;8.07;3.53;;;17.70;99.90;;;;;;4990290;28;20081;-80
2021/08/28 10:28:06;;;;;;;7.10;3.10;;;17.90;99.90;;;;;;5002376;28;20030;-80
2021/08/28 10:30:32;;;;;;;5.95;3.40;;;;;;;;;;4993055;28;20058;-82
2021/08/28 10:33:01;;;;;;;5.00;3.20;;;;;;;;;;5013801;28;20175;-82
2021/08/28 10:35:27;;;;;;;6.50;3.42;;;;;;;;;;4999426;28;20014;-81
2021/08/28 10:38:01;;;;;;;6.28;3.45;;;18.10;99.90;;;;;;5018891;28;20041;-81
2021/08/28 10:40:30;;;;;;;10.77;3.85;;;18.10;99.90;;;;;;5016391;28;20034;-80
2021/08/28 10:43:03;;;;;;;8.65;3.88;;;18.10;99.90;;;;;;4998374;28;20141;-78
2021/08/28 10:45:34;;;;;;;4.80;2.97;;;18.20;99.90;;;;;;4998709;28;20047;-82
2021/08/28 10:48:05;;;;;;;8.88;4.20;;;18.30;99.90;;;;;;5001447;28;20026;-80
2021/08/28 10:50:41;;;;;;;6.47;3.90;;;18.20;99.90;;;;;;5002786;28;20057;-79
2021/08/28 10:53:08;;;;;;;7.90;4.20;;;18.30;99.90;;;;;;5010219;28;20036;-81
2021/08/28 10:55:38;;;;;;;7.85;3.97;;;18.30;99.90;;;;;;5010385;28;20407;-82
2021/08/28 10:58:14;;;;;;;7.07;4.43;;;18.40;99.90;;;;;;4998075;28;20073;-82
2021/08/28 11:01:03;;;;;;;5.70;3.80;;;18.60;99.90;;;;;;5008519;28;20056;-84
2021/08/28 11:03:35;;;;;;;6.88;3.40;;;18.90;99.90;;;;;;4997815;28;20092;-82
2021/08/28 11:06:16;;;;;;;6.22;3.55;;;19.00;99.60;;;;;;5026026;28;20551;-80
2021/08/28 11:08:56;;;;;;;7.65;3.67;;;19.00;99.70;;;;;;5012898;28;20076;-84
2021/08/28 11:11:44;;;;;;;6.95;4.28;;;18.90;99.90;;;;;;5000608;28;20053;-83
2021/08/28 11:14:16;;;;;;;9.43;4.97;;;18.70;99.90;;;;;;4995033;28;20026;-82
2021/08/28 11:16:42;;;;;;;7.15;4.35;;;;;;;;;;4998926;28;20030;-84
2021/08/28 11:19:13;;;;;;;9.45;4.38;;;18.40;99.90;;;;;;5005694;28;20085;-83
2021/08/28 11:21:46;;;;;;;;;;;18.10;99.90;;;;;;4995509;28;20022;-83
2021/08/28 11:24:13;;;;;;;6.53;3.88;;;18.30;99.90;;;;;;5000118;28;19910;-82
2021/08/28 11:26:40;;;;;;;7.80;4.53;;;;;;;;;;4995039;28;20022;-82
2021/08/28 11:29:24;;;;;;;8.52;4.68;;;18.20;99.90;;;;;;5011284;28;20209;-83
2021/08/28 11:32:12;;;;;;;5.97;4.13;;;18.10;99.90;;;;;;5011350;28;20030;-82
2021/08/28 11:34:47;;;;;;;7.80;4.50;;;18.00;99.90;;;;;;4996647;28;20038;-85
2021/08/28 11:37:31;;;;;;;6.35;4.13;;;17.80;99.90;;;;;;5014480;28;20108;-81
2021/08/28 11:40:19;;;;;;;7.43;4.20;;;17.60;99.90;;;;;;5013843;28;20021;-81
2021/08/28 11:42:45;;;;;;;10.65;4.18;;;;;;;;;;5002518;28;20021;-82
2021/08/28 11:45:12;;;;;;;9.48;4.78;;;;;;;;;;5019366;28;20079;-83
2021/08/28 11:47:39;;;;;;;6.57;3.75;;;17.10;99.90;;;;;;5015917;28;20030;-84
2021/08/28 11:50:06;;;;;;;6.55;3.75;;;16.90;99.90;;;;;;5004249;28;20033;-85
2021/08/28 11:52:36;;;;;;;6.57;3.85;;;16.90;99.90;;;;;;5009827;28;20026;-82
2021/08/28 11:55:06;;;;;;;6.13;3.90;;;16.90;99.90;;;;;;5004305;28;20038;-83
2021/08/28 11:57:39;;;;;;;7.32;4.22;;;17.10;99.90;;;;;;5004984;28;20099;-82
2021/08/28 12:00:08;;;;;;;6.72;3.78;;;17.10;99.90;;;;;;4996484;28;20034;-82
2021/08/28 12:02:34;;;;;;;23.05;12.73;;;;;;;;;;5003324;28;20061;-84
2021/08/28 12:05:12;;;;;;;8.57;5.13;;;17.30;99.90;;;;;;5001589;28;20060;-84
2021/08/28 12:07:39;;;;;;;10.35;5.03;;;17.40;99.90;;;;;;4999947;28;20030;-82
2021/08/28 12:10:06;;;;;;;8.18;4.40;;;17.60;99.90;;;;;;4998322;28;20024;-82
2021/08/28 12:12:35;;;;;;;7.60;4.10;;;;;;;;;;5014378;28;20107;-83
2021/08/28 12:15:05;;;;;;;7.13;4.10;;;17.70;99.90;;;;;;5018890;28;20026;-84
2021/08/28 12:17:31;;;;;;;;;;;17.80;99.90;;;;;;4997023;28;20026;-83
2021/08/28 12:20:01;;;;;;;7.18;4.25;;;17.80;99.90;;;;;;5003124;28;19932;-84
2021/08/28 12:22:27;;;;;;;6.72;4.53;;;;;;;;;;4994357;28;20044;-80
2021/08/28 12:24:53;;;;;;;7.80;4.70;;;;;;;;;;5022910;28;20026;-82
2021/08/28 12:27:21;;;;;;;7.93;4.38;;;17.70;99.90;;;;;;5020318;28;20525;-81
2021/08/28 12:29:52;;;;;;;9.25;5.43;;;17.70;99.90;;;;;;4996518;28;20072;-82
2021/08/28 12:32:22;;;;;;;8.52;5.45;;;17.70;99.90;;;;;;5002895;28;20037;-82
2021/08/28 12:34:50;;;;;;;7.90;5.03;;;17.70;99.90;;;;;;4999072;28;20034;-84
2021/08/28 12:37:18;;;;;;;8.13;4.63;;;17.70;99.90;;;;;;5009842;28;20030;-82
2021/08/28 12:39:47;;;;;;;9.10;5.18;;;17.80;99.90;;;;;;5002960;28;20053;-85
2021/08/28 12:42:18;;;;;;;6.45;4.47;;;17.30;99.90;;;;;;5003968;28;20120;-86
2021/08/28 12:44:47;;;;;;;;;;;19.60;99.90;;;;;;5003004;28;20058;-83
2021/08/28 12:47:16;;;;;;;9.13;5.50;;;18.10;99.90;;;;;;5023469;28;19955;-83
2021/08/28 12:49:42;;;;;;;7.05;4.25;;;;;;;;;;5005535;28;20276;-87
2021/08/28 12:52:13;;;;;;;10.27;5.88;;;18.40;99.90;;;;;;5019522;28;20052;-84
2021/08/28 12:54:45;;;;;;;7.53;4.30;;;18.50;99.90;;;;;;5014778;28;20054;-81
2021/08/28 12:57:31;;;;;;;5.28;4.00;;;18.50;99.90;;;;;;5020365;28;20034;-82
2021/08/28 13:00:05;;;;;;;8.30;4.60;;;18.80;99.90;;;;;;5012723;28;20026;-82
2021/08/28 13:02:33;;;;;;;6.20;4.13;;;19.30;99.90;;;;;;5019536;28;20022;-84
2021/08/28 13:04:59;;;;;;;5.75;3.53;;;21.40;99.90;;;;;;5019404;28;20023;-82
2021/08/28 13:07:28;;;;;;;6.30;3.60;;;19.20;99.90;;;;;;5008531;28;20010;-84
2021/08/28 13:09:54;;;;;;;5.28;3.50;;;;;;;;;;5030162;28;20026;-84
2021/08/28 13:12:43;;;;;;;4.75;2.95;;;19.00;99.90;;;;;;5002815;28;20026;-80
2021/08/28 13:15:25;;;;;;;4.57;2.93;;;19.00;99.90;;;;;;5014965;28;20054;-82
2021/08/28 13:18:09;;;;;;;6.88;3.40;;;18.70;99.90;;;;;;5007033;28;20026;-82
2021/08/28 13:20:41;;;;;;;5.43;3.20;;;19.40;99.90;;;;;;5008050;28;20033;-82
2021/08/28 13:23:13;;;;;;;4.63;2.70;;;19.40;99.90;;;;;;5005588;28;20479;-82
2021/08/28 13:25:45;;;;;;;4.82;2.97;;;19.60;99.90;;;;;;5013458;28;20049;-83
2021/08/28 13:28:19;;;;;;;4.95;2.83;;;19.90;99.90;;;;;;5004084;28;20076;-83